As Olivia — DYQC — position and weather

sailwx.info

Track history (hours):
 
Tides and Currents Weather Stations Pressure Air Temp Water Temp Dewpoint Dewpoint Depression Visibility Wind Speed Wind Dir Waves Ship Positions

As Olivia

Last reported at 2015-Jun-30 10:33 UTC. Time now 2015-Jun-30 21:27 UTC.
Position N 39°59' W 009°56'.

Length 146 m; draft 8.8 m.

Type: Ship (hazmat cat A). MMSI: 548767000.

Date/timePositionNaut miles runAvg speedWind from/ knotsBaromVisibWave heightAir tempDewpointWater temp
2015-Jun-30 10:33N 39°59' W 009°56'1413.7
2015-Jun-30 09:33N 39°45' W 009°56'1413.7
2015-Jun-30 08:33N 39°31' W 009°56'1413.8
2015-Jun-30 07:33N 39°18' W 009°56'1313.5
2015-Jun-30 06:33N 39°04' W 009°56'1413.5
2015-Jun-30 05:33N 38°51' W 009°56'1313.1
2015-Jun-30 04:33N 38°38' W 009°54'1313.3
2015-Jun-30 03:33N 38°25' W 009°51'1313.1
2015-Jun-30 02:33N 38°12' W 009°47'1313.1
2015-Jun-30 01:33N 37°59' W 009°43'1313.3
2015-Jun-30 00:33N 37°46' W 009°40'1413.7
2015-Jun-29 23:33N 37°33' W 009°36'1313.5
2015-Jun-29 22:33N 37°19' W 009°32'1313.4
2015-Jun-29 21:33N 37°06' W 009°28'1313.3
2015-Jun-29 20:33N 36°53' W 009°25'1313.2
2015-Jun-29 19:33N 36°43' W 009°14'1313.3
2015-Jun-29 18:33N 36°37' W 008°59'1413.4
2015-Jun-29 17:32N 36°33' W 008°43'13567.5
2015-Jun-29 15:32N 35°58' W 006°01'8 4.0
2015-Jun-29 13:27N 35°57' W 005°51'3 3.4
2015-Jun-29 12:29N 35°57' W 005°47'4 2.9
2015-Jun-29 11:05N 35°58' W 005°42'9 3.4
2015-Jun-29 08:33N 35°59' W 005°32'4 1.4
2015-Jun-29 05:31N 36°00' W 005°27'1212.5
2015-Jun-29 04:33N 36°03' W 005°12'5313.2
2015-Jun-29 00:32N 36°11' W 004°07'2612.8
2015-Jun-28 22:30N 36°16' W 003°36'1313.8
2015-Jun-28 21:34N 36°17' W 003°19'1413.9
2015-Jun-28 20:33N 36°20' W 003°02'1414.0
2015-Jun-28 19:34N 36°22' W 002°45'1414.2
2015-Jun-28 18:33N 36°24' W 002°28'1514.5
2015-Jun-28 17:31N 36°26' W 002°10'1414.5
2015-Jun-28 16:33N 36°35' W 001°55'1414.5
2015-Jun-28 15:33N 36°43' W 001°41'1514.4
2015-Jun-28 14:29N 36°53' W 001°26'1414.2
2015-Jun-28 13:30N 37°01' W 001°11'1414.2
2015-Jun-28 12:33N 37°09' W 000°58'1414.0
2015-Jun-28 11:33N 37°17' W 000°43'1414.3
2015-Jun-28 10:33N 37°25' W 000°29'1414.3
2015-Jun-28 09:34N 37°36' W 000°17'1414.3
2015-Jun-28 08:33N 37°48' W 000°07'1414.4
2015-Jun-28 07:33N 37°60' E 000°03'1514.6
2015-Jun-28 06:33N 38°12' E 000°12'1514.5
2015-Jun-28 05:33N 38°25' E 000°22'1414.3
2015-Jun-28 04:33N 38°37' E 000°31'1913.7
2015-Jun-28 03:11N 38°55' E 000°40'913.9
2015-Jun-28 02:33N 39°03' E 000°40'1413.8
2015-Jun-28 01:33N 39°17' E 000°40'3013.9
2015-Jun-27 23:25N 39°42' E 000°19'1414.4
2015-Jun-27 22:28N 39°53' E 000°09'7 0.3
2015-Jun-26 20:30N 39°57' E 000°01'3 0.8
2015-Jun-26 16:18N 39°58' E 000°06'0 0.0
2015-Jun-26 15:27N 39°58' E 000°06'0 0.0
2015-Jun-26 14:33N 39°58' E 000°06'0 0.0
2015-Jun-26 13:33N 39°58' E 000°06'0 0.0
2015-Jun-26 09:28N 39°58' E 000°06'0 0.0
2015-Jun-26 03:21N 39°58' E 000°06'0 0.0
2015-Jun-26 02:15N 39°58' E 000°06'12 4.0
2015-Jun-25 23:17N 39°53' E 000°20'1014.0
2015-Jun-25 22:33N 39°49' E 000°32'1414.1
2015-Jun-25 21:33N 39°42' E 000°48'1514.1
2015-Jun-25 20:30N 39°36' E 001°06'1414.3
2015-Jun-25 19:33N 39°30' E 001°22'1414.2
2015-Jun-25 18:33N 39°24' E 001°38'1414.2
2015-Jun-25 17:33N 39°18' E 001°55'1413.9
2015-Jun-25 16:33N 39°12' E 002°11'1313.5
2015-Jun-25 15:33N 39°06' E 002°26'1313.5
2015-Jun-25 14:34N 39°01' E 002°42'1414.0
2015-Jun-25 13:33N 38°57' E 002°60'1413.6
2015-Jun-25 12:33N 38°55' E 003°17'1413.7
2015-Jun-25 11:33N 38°53' E 003°35'1413.7
2015-Jun-25 10:32N 38°51' E 003°52'20413.6
2015-Jun-24 19:33N 38°23' E 008°10'1313.2
2015-Jun-24 18:33N 38°21' E 008°27'1413.5
2015-Jun-24 17:31N 38°19' E 008°45'1413.7
2015-Jun-24 16:32N 38°17' E 009°02'1613.7
2015-Jun-24 15:24N 38°14' E 009°21'1713.7
2015-Jun-24 14:10N 38°06' E 009°40'813.5
2015-Jun-24 13:33N 38°02' E 009°50'1713.5
2015-Jun-24 12:18N 37°54' E 010°08'9313.7
2015-Jun-24 05:30N 37°10' E 011°52'1313.3
2015-Jun-24 04:33N 37°04' E 012°06'1313.1
2015-Jun-24 03:34N 36°59' E 012°21'1313.3
2015-Jun-24 02:33N 36°55' E 012°36'1413.6
2015-Jun-24 01:33N 36°50' E 012°52'1413.6
2015-Jun-24 00:34N 36°47' E 013°09'1413.9
2015-Jun-23 23:34N 36°42' E 013°25'1414.1
2015-Jun-23 22:34N 36°38' E 013°42'1414.1
2015-Jun-23 21:34N 36°33' E 013°59'1414.0
2015-Jun-23 20:33N 36°29' E 014°15'1414.0
2015-Jun-23 19:33N 36°25' E 014°32'613.9
2015-Jun-23 19:06N 36°23' E 014°39'  
Track history (hours):
 
Tides and Currents Weather Stations Pressure Air Temp Water Temp Dewpoint Dewpoint Depression Visibility Wind Speed Wind Dir Waves Ship Positions

As Olivia

Last reported at 2015-Jun-30 10:33 UTC. Time now 2015-Jun-30 21:27 UTC.
Position N 39°59' W 009°56'.

Length 146 m; draft 8.8 m.

Type: Ship (hazmat cat A). MMSI: 548767000.

Date/timePositionNaut miles runAvg speedWind from/ knotsBaromVisibWave heightAir tempDewpointWater temp
2015-Jun-30 10:33N 39°59' W 009°56'1413.7
2015-Jun-30 09:33N 39°45' W 009°56'1413.7
2015-Jun-30 08:33N 39°31' W 009°56'1413.8
2015-Jun-30 07:33N 39°18' W 009°56'1313.5
2015-Jun-30 06:33N 39°04' W 009°56'1413.5
2015-Jun-30 05:33N 38°51' W 009°56'1313.1
2015-Jun-30 04:33N 38°38' W 009°54'1313.3
2015-Jun-30 03:33N 38°25' W 009°51'1313.1
2015-Jun-30 02:33N 38°12' W 009°47'1313.1
2015-Jun-30 01:33N 37°59' W 009°43'1313.3
2015-Jun-30 00:33N 37°46' W 009°40'1413.7
2015-Jun-29 23:33N 37°33' W 009°36'1313.5
2015-Jun-29 22:33N 37°19' W 009°32'1313.4
2015-Jun-29 21:33N 37°06' W 009°28'1313.3
2015-Jun-29 20:33N 36°53' W 009°25'1313.2
2015-Jun-29 19:33N 36°43' W 009°14'1313.3
2015-Jun-29 18:33N 36°37' W 008°59'1413.4
2015-Jun-29 17:32N 36°33' W 008°43'13567.5
2015-Jun-29 15:32N 35°58' W 006°01'8 4.0
2015-Jun-29 13:27N 35°57' W 005°51'3 3.4
2015-Jun-29 12:29N 35°57' W 005°47'4 2.9
2015-Jun-29 11:05N 35°58' W 005°42'9 3.4
2015-Jun-29 08:33N 35°59' W 005°32'4 1.4
2015-Jun-29 05:31N 36°00' W 005°27'1212.5
2015-Jun-29 04:33N 36°03' W 005°12'5313.2
2015-Jun-29 00:32N 36°11' W 004°07'2612.8
2015-Jun-28 22:30N 36°16' W 003°36'1313.8
2015-Jun-28 21:34N 36°17' W 003°19'1413.9
2015-Jun-28 20:33N 36°20' W 003°02'1414.0
2015-Jun-28 19:34N 36°22' W 002°45'1414.2
2015-Jun-28 18:33N 36°24' W 002°28'1514.5
2015-Jun-28 17:31N 36°26' W 002°10'1414.5
2015-Jun-28 16:33N 36°35' W 001°55'1414.5
2015-Jun-28 15:33N 36°43' W 001°41'1514.4
2015-Jun-28 14:29N 36°53' W 001°26'1414.2
2015-Jun-28 13:30N 37°01' W 001°11'1414.2
2015-Jun-28 12:33N 37°09' W 000°58'1414.0
2015-Jun-28 11:33N 37°17' W 000°43'1414.3
2015-Jun-28 10:33N 37°25' W 000°29'1414.3
2015-Jun-28 09:34N 37°36' W 000°17'1414.3
2015-Jun-28 08:33N 37°48' W 000°07'1414.4
2015-Jun-28 07:33N 37°60' E 000°03'1514.6
2015-Jun-28 06:33N 38°12' E 000°12'1514.5
2015-Jun-28 05:33N 38°25' E 000°22'1414.3
2015-Jun-28 04:33N 38°37' E 000°31'1913.7
2015-Jun-28 03:11N 38°55' E 000°40'913.9
2015-Jun-28 02:33N 39°03' E 000°40'1413.8
2015-Jun-28 01:33N 39°17' E 000°40'3013.9
2015-Jun-27 23:25N 39°42' E 000°19'1414.4
2015-Jun-27 22:28N 39°53' E 000°09'7 0.3
2015-Jun-26 20:30N 39°57' E 000°01'3 0.8
2015-Jun-26 16:18N 39°58' E 000°06'0 0.0
2015-Jun-26 15:27N 39°58' E 000°06'0 0.0
2015-Jun-26 14:33N 39°58' E 000°06'0 0.0
2015-Jun-26 13:33N 39°58' E 000°06'0 0.0
2015-Jun-26 09:28N 39°58' E 000°06'0 0.0
2015-Jun-26 03:21N 39°58' E 000°06'0 0.0
2015-Jun-26 02:15N 39°58' E 000°06'12 4.0
2015-Jun-25 23:17N 39°53' E 000°20'1014.0
2015-Jun-25 22:33N 39°49' E 000°32'1414.1
2015-Jun-25 21:33N 39°42' E 000°48'1514.1
2015-Jun-25 20:30N 39°36' E 001°06'1414.3
2015-Jun-25 19:33N 39°30' E 001°22'1414.2
2015-Jun-25 18:33N 39°24' E 001°38'1414.2
2015-Jun-25 17:33N 39°18' E 001°55'1413.9
2015-Jun-25 16:33N 39°12' E 002°11'1313.5
2015-Jun-25 15:33N 39°06' E 002°26'1313.5
2015-Jun-25 14:34N 39°01' E 002°42'1414.0
2015-Jun-25 13:33N 38°57' E 002°60'1413.6
2015-Jun-25 12:33N 38°55' E 003°17'1413.7
2015-Jun-25 11:33N 38°53' E 003°35'1413.7
2015-Jun-25 10:32N 38°51' E 003°52'20413.6
2015-Jun-24 19:33N 38°23' E 008°10'1313.2
2015-Jun-24 18:33N 38°21' E 008°27'1413.5
2015-Jun-24 17:31N 38°19' E 008°45'1413.7
2015-Jun-24 16:32N 38°17' E 009°02'1613.7
2015-Jun-24 15:24N 38°14' E 009°21'1713.7
2015-Jun-24 14:10N 38°06' E 009°40'813.5
2015-Jun-24 13:33N 38°02' E 009°50'1713.5
2015-Jun-24 12:18N 37°54' E 010°08'9313.7
2015-Jun-24 05:30N 37°10' E 011°52'1313.3
2015-Jun-24 04:33N 37°04' E 012°06'1313.1
2015-Jun-24 03:34N 36°59' E 012°21'1313.3
2015-Jun-24 02:33N 36°55' E 012°36'1413.6
2015-Jun-24 01:33N 36°50' E 012°52'1413.6
2015-Jun-24 00:34N 36°47' E 013°09'1413.9
2015-Jun-23 23:34N 36°42' E 013°25'1414.1
2015-Jun-23 22:34N 36°38' E 013°42'1414.1
2015-Jun-23 21:34N 36°33' E 013°59'1414.0
2015-Jun-23 20:33N 36°29' E 014°15'1414.0
2015-Jun-23 19:33N 36°25' E 014°32'613.9
2015-Jun-23 19:06N 36°23' E 014°39'  

Dump ship's entire track history